Time;durP1;ratioP1;P1;durP2;ratioP2;P2;SDS_P1;SDS_P2;PMS_P1;PMS_P2;Temp;Humidity;BMP_temperature;BMP_pressure;BME280_temperature;BME280_humidity;BME280_pressure;Samples;Min_cycle;Max_cycle;Signal;HPM_P1;HPM_P2
2023/07/24 00:02:14;;;;;;;6.10;4.57;;;;;;;17.50;83.51;97368.84;6227990;28;20235;-56
2023/07/24 00:05:16;;;;;;;5.33;4.60;;;;;;;17.47;83.40;97372.13;6233735;28;20292;-57
2023/07/24 00:08:19;;;;;;;7.23;4.63;;;;;;;17.43;83.42;97371.09;6232590;28;20269;-55
2023/07/24 00:11:21;;;;;;;4.70;4.20;;;;;;;17.39;83.54;97370.06;6230455;28;20231;-56
2023/07/24 00:14:24;;;;;;;5.90;4.20;;;;;;;17.35;83.33;97372.59;6233041;28;20635;-58
2023/07/24 00:17:26;;;;;;;4.80;4.30;;;;;;;17.00;83.67;97318.19;6219708;28;20314;-55
2023/07/24 00:20:28;;;;;;;5.43;4.40;;;;;;;17.32;83.33;97366.97;6232865;28;20570;-56
2023/07/24 00:23:31;;;;;;;6.03;4.67;;;;;;;17.31;83.13;97368.06;6232703;28;20259;-56
2023/07/24 00:26:33;;;;;;;4.67;4.10;;;;;;;17.29;83.37;97363.00;6224064;28;20224;-55
2023/07/24 00:29:36;;;;;;;5.40;4.70;;;;;;;17.30;83.35;97361.88;6233837;28;20771;-55
2023/07/24 00:32:39;;;;;;;4.73;4.03;;;;;;;17.30;83.43;97353.81;6232510;28;20227;-56
2023/07/24 00:35:41;;;;;;;4.70;4.20;;;;;;;17.29;83.75;97354.91;6214293;28;20231;-56
2023/07/24 00:38:44;;;;;;;6.20;4.90;;;;;;;17.28;83.46;97355.97;6230460;28;20318;-41
2023/07/24 00:41:49;;;;;;;8.40;4.80;;;;;;;17.13;83.68;97343.56;6231275;28;20236;-41
2023/07/24 00:44:51;;;;;;;5.27;4.30;;;;;;;17.23;83.78;97354.16;6231534;28;20232;-40
2023/07/24 00:47:54;;;;;;;4.87;4.27;;;;;;;17.20;83.85;97353.97;6228126;28;20242;-40
2023/07/24 00:50:57;;;;;;;5.93;4.77;;;;;;;17.21;83.98;97350.19;6231141;28;20322;-41
2023/07/24 00:54:02;;;;;;;5.03;4.50;;;;;;;17.18;83.97;97354.25;6220219;28;21104;-48
2023/07/24 00:57:05;;;;;;;6.97;5.23;;;;;;;17.17;84.18;97349.97;6196843;28;20232;-41
2023/07/24 01:00:08;;;;;;;6.77;5.40;;;;;;;17.13;84.43;97353.53;6229607;28;20249;-41
2023/07/24 01:03:12;;;;;;;5.43;4.67;;;;;;;16.99;84.83;97330.06;6227435;28;20201;-42
2023/07/24 01:06:14;;;;;;;5.93;4.90;;;;;;;17.07;84.76;97344.72;6232337;28;20289;-41
2023/07/24 01:09:17;;;;;;;8.33;5.00;;;;;;;17.04;85.00;97348.00;6231165;28;20227;-41
2023/07/24 01:12:39;;;;;;;6.53;5.53;;;;;;;17.02;85.30;97350.19;6231362;28;20239;-41
2023/07/24 01:15:48;;;;;;;7.60;5.07;;;;;;;16.96;85.41;97346.78;6228626;28;20224;-41
2023/07/24 01:18:52;;;;;;;7.10;5.10;;;;;;;16.84;85.66;97326.75;6227766;28;20235;-42
2023/07/24 01:22:15;;;;;;;5.70;4.53;;;;;;;16.90;85.63;97339.06;6230141;28;20323;-42
2023/07/24 01:25:23;;;;;;;7.73;5.47;;;;;;;16.85;86.39;97334.56;6212660;28;20244;-41
2023/07/24 01:28:26;;;;;;;9.77;5.17;;;;;;;16.75;86.20;97322.03;6228881;28;20246;-40
2023/07/24 01:31:28;;;;;;;5.53;4.83;;;;;;;16.83;86.31;97335.94;6213990;28;20504;-42
2023/07/24 01:34:30;;;;;;;6.03;4.73;;;;;;;16.80;86.26;97339.19;6226282;28;20223;-42
2023/07/24 01:37:35;;;;;;;6.57;5.10;;;;;;;16.77;86.27;97344.06;6229402;28;20382;-42
2023/07/24 01:40:41;;;;;;;6.87;5.40;;;;;;;16.75;86.39;97335.50;6230508;28;20254;-40
2023/07/24 01:43:44;;;;;;;5.67;4.50;;;;;;;16.72;86.42;97329.88;6227326;28;20331;-42
2023/07/24 01:46:46;;;;;;;5.43;4.43;;;;;;;16.69;86.35;97336.59;6229843;28;20232;-42
2023/07/24 01:49:49;;;;;;;5.10;4.60;;;;;;;16.63;86.41;97327.00;6230427;28;20239;-41
2023/07/24 01:52:51;;;;;;;7.47;5.03;;;;;;;16.60;86.36;97324.09;6230245;28;20322;-43
2023/07/24 01:55:53;;;;;;;6.67;5.30;;;;;;;16.42;86.39;97298.78;6229451;28;20333;-43
2023/07/24 01:58:56;;;;;;;6.10;4.80;;;;;;;16.55;86.34;97319.59;6211142;28;20239;-43
2023/07/24 02:01:58;;;;;;;4.90;4.33;;;;;;;16.51;86.34;97316.69;6227441;28;20224;-40
2023/07/24 02:05:00;;;;;;;9.07;5.30;;;;;;;16.51;86.24;97316.69;6212126;28;20228;-42
2023/07/24 02:08:03;;;;;;;6.13;5.03;;;;;;;16.50;86.08;97308.88;6230771;28;20246;-43
2023/07/24 02:11:05;;;;;;;6.40;4.73;;;;;;;16.46;86.22;97316.75;6228888;28;20239;-42
2023/07/24 02:14:08;;;;;;;6.47;5.30;;;;;;;16.42;86.24;97307.66;6229509;28;20743;-42
2023/07/24 02:17:11;;;;;;;6.27;5.30;;;;;;;16.38;86.27;97300.44;6229455;28;20235;-41
2023/07/24 02:20:13;;;;;;;6.57;5.07;;;;;;;16.35;86.29;97301.03;6230688;28;20239;-41
2023/07/24 02:23:15;;;;;;;6.57;5.03;;;;;;;16.34;86.25;97304.81;6229321;28;20223;-42
2023/07/24 02:26:17;;;;;;;5.73;5.00;;;;;;;16.32;86.38;97298.91;6228853;28;20697;-42
2023/07/24 02:29:20;;;;;;;6.40;5.07;;;;;;;16.30;86.35;97298.41;6229697;28;20358;-42
2023/07/24 02:32:23;;;;;;;7.13;5.10;;;;;;;16.29;86.08;97297.59;6230332;28;20544;-43
2023/07/24 02:35:26;;;;;;;6.13;4.83;;;;;;;16.18;86.09;97278.13;6226287;28;20258;-42
2023/07/24 02:38:28;;;;;;;5.90;4.90;;;;;;;16.18;85.97;97282.69;6227046;28;20770;-41
2023/07/24 02:41:30;;;;;;;4.90;4.33;;;;;;;16.23;85.89;97288.81;6229127;28;20235;-44
2023/07/24 02:44:36;;;;;;;5.83;5.10;;;;;;;16.11;85.89;97275.00;6228694;28;20244;-44
2023/07/24 02:47:38;;;;;;;5.27;4.40;;;;;;;16.16;86.06;97290.25;6228999;28;20286;-50
2023/07/24 02:50:40;;;;;;;6.83;5.07;;;;;;;16.11;86.06;97288.44;6229579;28;20234;-40
2023/07/24 02:53:43;;;;;;;6.23;5.17;;;;;;;16.06;86.49;97287.66;6228487;28;20224;-43
2023/07/24 02:56:45;;;;;;;7.23;5.57;;;;;;;15.99;86.73;97285.31;6229027;28;20301;-43
2023/07/24 02:59:48;;;;;;;7.40;5.37;;;;;;;15.95;86.78;97281.59;6224992;28;20231;-41
2023/07/24 03:02:52;;;;;;;7.40;5.10;;;;;;;15.92;87.08;97287.56;6227472;28;20232;-42
2023/07/24 03:05:54;;;;;;;7.87;5.63;;;;;;;15.89;86.92;97275.50;6227451;28;20236;-40
2023/07/24 03:08:57;;;;;;;5.83;5.23;;;;;;;15.87;86.84;97264.25;6225345;28;20231;-43
2023/07/24 03:11:59;;;;;;;7.67;5.50;;;;;;;15.86;86.91;97265.34;6229442;28;20246;-40
2023/07/24 03:15:02;;;;;;;7.13;5.60;;;;;;;15.81;87.13;97268.09;6227759;28;20231;-41
2023/07/24 03:18:04;;;;;;;7.83;5.33;;;;;;;15.80;86.99;97260.28;6228120;28;20219;-40
2023/07/24 03:21:07;;;;;;;6.87;5.23;;;;;;;15.80;87.46;97253.03;6228746;28;20255;-43
2023/07/24 03:24:09;;;;;;;6.30;4.63;;;;;;;15.65;87.12;97229.03;6211094;28;20223;-41
2023/07/24 03:27:12;;;;;;;7.03;5.40;;;;;;;15.79;86.99;97246.06;6227257;28;20224;-42
2023/07/24 03:30:14;;;;;;;5.97;5.13;;;;;;;15.79;86.92;97243.38;6228104;28;20234;-42
2023/07/24 03:33:17;;;;;;;5.37;4.50;;;;;;;15.80;86.88;97241.50;6228380;28;20662;-42
2023/07/24 03:36:19;;;;;;;7.33;5.70;;;;;;;15.84;86.85;97239.84;6209290;28;20260;-41
2023/07/24 03:39:26;;;;;;;7.37;5.60;;;;;;;15.83;86.70;97244.41;6225245;28;20228;-40
2023/07/24 03:42:31;;;;;;;7.93;5.53;;;;;;;15.86;86.78;97241.16;6228880;28;20682;-42
2023/07/24 03:45:33;;;;;;;7.50;5.90;;;;;;;15.90;86.45;97241.38;6227451;28;20282;-41
2023/07/24 03:48:36;;;;;;;7.67;5.63;;;;;;;15.92;86.11;97248.06;6226962;28;20227;-41
2023/07/24 03:51:39;;;;;;;8.47;5.87;;;;;;;15.94;85.60;97237.03;6209105;28;20712;-40
2023/07/24 03:54:42;;;;;;;6.97;6.00;;;;;;;15.96;85.39;97241.03;6224243;28;20302;-41
2023/07/24 03:57:44;;;;;;;8.23;6.10;;;;;;;15.89;85.11;97229.81;6226646;28;20679;-42
2023/07/24 04:00:46;;;;;;;7.73;5.57;;;;;;;15.92;84.82;97229.25;6227436;28;20230;-43
2023/07/24 04:03:49;;;;;;;7.70;5.90;;;;;;;16.11;84.76;97244.63;6226002;28;20709;-40
2023/07/24 04:06:51;;;;;;;9.03;6.43;;;;;;;16.13;84.66;97251.31;6209228;28;20236;-42
2023/07/24 04:09:54;;;;;;;7.67;5.93;;;;;;;16.17;84.87;97246.97;6227432;28;20354;-44
2023/07/24 04:12:57;;;;;;;9.23;6.13;;;;;;;16.22;85.17;97243.41;6226828;28;20289;-41
2023/07/24 04:15:59;;;;;;;8.97;5.90;;;;;;;16.24;84.68;97233.94;6227096;28;20239;-41
2023/07/24 04:19:02;;;;;;;7.57;6.00;;;;;;;16.29;84.79;97238.47;6227391;28;20231;-40
2023/07/24 04:22:05;;;;;;;8.60;5.50;;;;;;;16.34;84.98;97237.59;6225085;28;20254;-42
2023/07/24 04:25:07;;;;;;;7.57;6.13;;;;;;;16.38;84.81;97234.03;6226899;28;20235;-42
2023/07/24 04:28:10;;;;;;;10.03;6.77;;;;;;;16.46;84.78;97233.41;6232353;28;20240;-42
2023/07/24 04:31:12;;;;;;;9.10;6.40;;;;;;;16.32;84.50;97202.16;6228087;28;20775;-44
2023/07/24 04:34:14;;;;;;;7.93;6.63;;;;;;;16.65;83.46;97235.25;6227839;28;20740;-41
2023/07/24 04:37:16;;;;;;;7.90;6.10;;;;;;;16.75;83.53;97232.47;6226702;28;20223;-41
2023/07/24 04:40:19;;;;;;;9.20;6.33;;;;;;;16.83;83.02;97228.31;6226536;28;20242;-42
2023/07/24 04:43:21;;;;;;;9.40;6.70;;;;;;;16.91;82.67;97233.03;6227450;28;20230;-43
2023/07/24 04:46:23;;;;;;;8.60;6.70;;;;;;;16.91;82.85;97219.59;6225811;28;20236;-40
2023/07/24 04:49:29;;;;;;;7.90;5.90;;;;;;;17.11;82.36;97234.59;6228274;28;20263;-42
2023/07/24 04:52:31;;;;;;;8.33;6.43;;;;;;;17.16;81.38;97223.75;6228011;28;20324;-41
2023/07/24 04:55:33;;;;;;;7.80;6.57;;;;;;;17.36;82.07;97223.38;6231772;28;20228;-44
2023/07/24 04:58:35;;;;;;;9.13;6.80;;;;;;;17.48;81.04;97234.47;6212560;28;20227;-41
2023/07/24 05:01:38;;;;;;;11.70;7.10;;;;;;;17.61;80.30;97214.03;6231040;28;20285;-42
2023/07/24 05:04:41;;;;;;;8.07;6.50;;;;;;;17.71;79.96;97221.13;6230996;28;20683;-42
2023/07/24 05:07:43;;;;;;;8.67;7.23;;;;;;;17.81;79.90;97222.88;6222176;28;20710;-43
2023/07/24 05:10:45;;;;;;;9.27;6.43;;;;;;;17.89;79.77;97220.28;6230888;28;20246;-42
2023/07/24 05:13:48;;;;;;;9.57;6.83;;;;;;;17.98;79.73;97223.88;6231041;28;20243;-41
2023/07/24 05:16:50;;;;;;;8.27;5.90;;;;;;;18.08;79.46;97230.13;6230525;28;20236;-42
2023/07/24 05:19:52;;;;;;;8.90;6.93;;;;;;;18.15;79.66;97227.84;6231176;28;20289;-42
2023/07/24 05:22:55;;;;;;;7.70;6.33;;;;;;;18.18;79.86;97240.72;6231487;28;20243;-41
2023/07/24 05:26:01;;;;;;;8.40;6.30;;;;;;;18.19;80.83;97240.41;6231071;28;20331;-43
2023/07/24 05:29:04;;;;;;;8.90;7.00;;;;;;;18.18;80.96;97233.44;6230393;28;20239;-42
2023/07/24 05:32:06;;;;;;;9.03;6.70;;;;;;;18.21;80.94;97235.50;6231816;28;20235;-40
2023/07/24 05:35:08;;;;;;;7.80;6.53;;;;;;;18.25;81.27;97222.22;6229451;28;20231;-42
2023/07/24 05:38:11;;;;;;;7.40;5.90;;;;;;;18.28;81.43;97227.03;6228767;28;20719;-42
2023/07/24 05:41:13;;;;;;;7.73;6.57;;;;;;;18.30;81.32;97222.13;6224393;28;20293;-43
2023/07/24 05:44:15;;;;;;;10.00;6.87;;;;;;;18.30;80.99;97228.31;6230043;28;20226;-42
2023/07/24 05:47:18;;;;;;;9.53;6.70;;;;;;;18.33;80.52;97221.53;6221708;28;20239;-44
2023/07/24 05:50:20;;;;;;;10.43;6.73;;;;;;;18.39;80.38;97209.50;6228264;28;20317;-42
2023/07/24 05:53:22;;;;;;;8.43;6.50;;;;;;;18.45;80.08;97207.50;6229198;28;20224;-42
2023/07/24 05:56:25;;;;;;;8.37;5.73;;;;;;;18.52;80.03;97210.56;6229309;28;20234;-43
2023/07/24 05:59:27;;;;;;;8.93;6.47;;;;;;;18.56;80.45;97198.84;6229541;28;20381;-42
2023/07/24 06:02:29;;;;;;;7.77;6.37;;;;;;;18.63;80.53;97206.53;6229004;28;20242;-43
2023/07/24 06:05:31;;;;;;;8.37;6.00;;;;;;;18.60;79.80;97176.69;6229515;28;20239;-43
2023/07/24 06:08:35;;;;;;;6.53;5.67;;;;;;;18.77;79.86;97184.94;6230327;28;20227;-43
2023/07/24 06:11:37;;;;;;;6.60;5.70;;;;;;;18.85;79.85;97186.09;6228689;28;20882;-41
2023/07/24 06:14:39;;;;;;;6.93;5.83;;;;;;;18.93;79.34;97182.66;6230023;28;20228;-42
2023/07/24 06:17:42;;;;;;;7.80;5.80;;;;;;;18.90;79.31;97167.06;6228503;28;20227;-43
2023/07/24 06:20:44;;;;;;;8.53;5.73;;;;;;;19.07;79.60;97172.59;6228694;28;20231;-44
2023/07/24 06:23:46;;;;;;;7.07;5.47;;;;;;;19.15;79.16;97171.81;6229693;28;20307;-42
2023/07/24 06:26:50;;;;;;;7.30;5.50;;;;;;;19.17;78.24;97152.63;6229374;28;20242;-42
2023/07/24 06:29:52;;;;;;;8.97;6.20;;;;;;;19.41;78.15;97163.03;6207115;28;20588;-44
2023/07/24 06:33:02;;;;;;;8.00;6.13;;;;;;;19.56;77.62;97159.94;6227422;28;20236;-41
2023/07/24 06:36:09;;;;;;;7.10;5.83;;;;;;;19.77;77.52;97158.28;6229008;28;20208;-42
2023/07/24 06:39:11;;;;;;;9.47;6.73;;;;;;;19.98;77.24;97155.78;6211580;28;20236;-44
2023/07/24 06:42:14;;;;;;;7.03;6.07;;;;;;;20.22;76.74;97159.97;6224087;28;20227;-41
2023/07/24 06:45:17;;;;;;;6.90;5.67;;;;;;;20.44;75.87;97161.72;6224372;28;20249;-42
2023/07/24 06:48:21;;;;;;;8.30;6.57;;;;;;;20.71;74.95;97161.41;6232790;28;20255;-44
2023/07/24 06:51:23;;;;;;;7.23;5.87;;;;;;;20.93;75.20;97163.13;6234821;28;20242;-43
2023/07/24 06:54:25;;;;;;;6.77;5.63;;;;;;;21.14;74.69;97152.44;6222822;28;20227;-43
2023/07/24 06:57:28;;;;;;;6.70;5.37;;;;;;;21.31;73.68;97154.31;6227543;28;20709;-43
2023/07/24 07:00:30;;;;;;;5.70;5.00;;;;;;;21.44;74.95;97131.63;6227530;28;20923;-42
2023/07/24 07:03:34;;;;;;;8.40;6.40;;;;;;;21.66;74.90;97133.28;6226569;28;20215;-44
2023/07/24 07:06:37;;;;;;;8.57;6.67;;;;;;;21.82;75.00;97139.75;6227884;28;20228;-44
2023/07/24 07:09:40;;;;;;;9.13;6.57;;;;;;;22.01;72.96;97141.19;6227077;28;20242;-46
2023/07/24 07:12:42;;;;;;;7.83;6.20;;;;;;;22.06;73.26;97117.38;6226223;28;20228;-45
2023/07/24 07:15:45;;;;;;;7.77;6.63;;;;;;;22.40;72.28;97137.28;6227636;28;20228;-44
2023/07/24 07:18:47;;;;;;;8.60;6.40;;;;;;;22.53;71.56;97133.50;6227630;28;20273;-55
2023/07/24 07:21:49;;;;;;;8.07;6.40;;;;;;;22.72;68.21;97138.44;6227364;28;20242;-56
2023/07/24 07:24:51;;;;;;;7.20;6.13;;;;;;;22.95;69.05;97135.38;6227922;28;20232;-56
2023/07/24 07:27:54;;;;;;;7.23;6.23;;;;;;;23.11;68.53;97122.75;6227891;28;20724;-56
2023/07/24 07:30:56;;;;;;;7.70;5.80;;;;;;;23.21;68.42;97130.47;6215452;28;20353;-56
2023/07/24 07:33:59;;;;;;;6.57;5.57;;;;;;;23.29;68.84;97128.75;6226870;28;20326;-56
2023/07/24 07:37:01;;;;;;;8.23;6.47;;;;;;;23.36;67.88;97127.06;6210127;28;20804;-56
2023/07/24 07:40:04;;;;;;;9.50;6.60;;;;;;;23.49;66.63;97121.63;6225769;28;20366;-56
2023/07/24 07:43:07;;;;;;;8.57;6.85;;;;;;;23.66;65.98;97118.75;6226818;28;20223;-56
2023/07/24 07:46:09;;;;;;;8.48;7.10;;;;;;;23.73;65.76;97123.59;6227033;28;20322;-56
2023/07/24 07:49:11;;;;;;;8.70;6.53;;;;;;;23.81;63.22;97118.03;6227265;28;20352;-56
2023/07/24 07:52:17;;;;;;;8.93;7.07;;;;;;;24.03;61.39;97115.97;6226421;28;20235;-56
2023/07/24 07:55:19;;;;;;;8.20;6.57;;;;;;;24.17;62.15;97119.09;6227108;28;20381;-56
2023/07/24 07:58:21;;;;;;;8.55;6.95;;;;;;;24.26;61.86;97105.38;6227148;28;20329;-56
2023/07/24 08:01:24;;;;;;;8.88;6.80;;;;;;;24.36;58.32;97102.19;6223393;28;20266;-56
2023/07/24 08:04:26;;;;;;;9.30;7.00;;;;;;;24.62;57.85;97107.97;6227852;28;20583;-56
2023/07/24 08:07:31;;;;;;;7.78;6.75;;;;;;;24.69;58.63;97091.84;6225207;28;20622;-56
2023/07/24 08:10:33;;;;;;;9.80;6.75;;;;;;;24.79;59.93;97100.66;6223113;28;20245;-56
2023/07/24 08:13:37;;;;;;;8.85;6.43;;;;;;;24.90;59.59;97096.28;6226520;28;20235;-56
2023/07/24 08:16:40;;;;;;;8.40;6.45;;;;;;;25.03;58.67;97089.63;6225883;28;20720;-56
2023/07/24 08:19:42;;;;;;;9.50;6.57;;;;;;;25.27;56.56;97096.88;6223926;28;20728;-56
2023/07/24 08:22:45;;;;;;;12.95;7.18;;;;;;;25.42;57.33;97095.28;6226683;28;20306;-56
2023/07/24 08:25:55;;;;;;;10.10;6.38;;;;;;;25.44;57.42;97076.63;6231331;28;20243;-56
2023/07/24 08:28:57;;;;;;;7.85;6.80;;;;;;;25.54;57.52;97075.28;6228917;28;20333;-56
2023/07/24 08:31:59;;;;;;;8.85;6.90;;;;;;;25.60;56.99;97069.19;6231382;28;20246;-56
2023/07/24 08:35:02;;;;;;;8.18;6.68;;;;;;;25.67;56.64;97074.84;6214428;28;20227;-56
2023/07/24 08:38:04;;;;;;;9.50;6.90;;;;;;;26.15;52.00;97069.25;6231420;28;20223;-57
2023/07/24 08:41:11;;;;;;;9.52;7.10;;;;;;;26.35;51.19;97073.56;6231554;28;20463;-57
2023/07/24 08:44:14;;;;;;;7.55;6.32;;;;;;;26.70;47.75;97070.00;6231657;28;20323;-56
2023/07/24 08:47:18;;;;;;;7.50;5.93;;;;;;;26.92;49.02;97066.47;6231245;28;20318;-57
2023/07/24 08:50:21;;;;;;;6.85;5.60;;;;;;;26.99;50.59;97077.56;6232166;28;20233;-56
2023/07/24 08:53:24;;;;;;;7.65;6.38;;;;;;;26.87;51.31;97061.31;6231956;28;20300;-55
2023/07/24 08:56:26;;;;;;;8.70;6.30;;;;;;;26.90;54.68;97065.28;6230816;28;20924;-56
2023/07/24 08:59:29;;;;;;;9.30;5.90;;;;;;;26.86;54.71;97061.69;6230779;28;20325;-56
2023/07/24 09:02:33;;;;;;;9.38;6.60;;;;;;;27.17;50.53;97056.00;6230999;28;20239;-56
2023/07/24 09:05:36;;;;;;;10.43;6.40;;;;;;;27.24;51.33;97056.13;6230166;28;20815;-56
2023/07/24 09:08:40;;;;;;;9.95;6.82;;;;;;;27.13;52.45;97037.94;6229364;28;20245;-56
2023/07/24 09:11:51;;;;;;;8.35;5.60;;;;;;;27.12;53.75;97044.56;6229021;28;20239;-55
2023/07/24 09:15:06;;;;;;;12.10;6.60;;;;;;;27.02;52.40;97038.53;6228127;28;20238;-54
2023/07/24 09:18:19;;;;;;;8.40;5.90;;;;;;;27.02;54.10;97024.84;6227665;28;20220;-55
2023/07/24 09:21:32;;;;;;;8.35;6.03;;;;;;;27.48;51.98;97040.44;6223101;28;20229;-55
2023/07/24 09:24:34;;;;;;;7.15;6.30;;;;;;;27.52;52.15;97033.09;6230779;28;20235;-55
2023/07/24 09:27:37;;;;;;;9.85;6.10;;;;;;;27.82;46.21;97035.09;6230172;28;20609;-55
2023/07/24 09:30:40;;;;;;;6.63;5.90;;;;;;;28.00;49.00;97033.38;6212822;28;20246;-56
2023/07/24 09:33:46;;;;;;;9.73;6.32;;;;;;;27.81;53.24;97009.69;6230019;28;20235;-56
2023/07/24 09:36:48;;;;;;;8.13;6.53;;;;;;;27.97;45.16;97007.53;6225734;28;20247;-55
2023/07/24 09:39:51;;;;;;;6.85;6.13;;;;;;;28.20;40.39;97009.38;6227898;28;20232;-55
2023/07/24 09:42:55;;;;;;;8.45;6.30;;;;;;;28.46;39.68;97003.81;6229772;28;20381;-56
2023/07/24 09:46:17;;;;;;;7.40;5.93;;;;;;;28.38;42.18;96984.97;6228036;28;20676;-56
2023/07/24 09:49:19;;;;;;;6.53;5.88;;;;;;;28.42;45.98;96996.72;6229314;28;20269;-55
2023/07/24 09:52:24;;;;;;;8.68;6.72;;;;;;;28.27;42.41;96996.53;6228799;28;20289;-55
2023/07/24 09:55:32;;;;;;;9.05;6.30;;;;;;;28.32;43.50;96989.16;6228370;28;20245;-55
2023/07/24 09:58:42;;;;;;;7.78;5.70;;;;;;;28.38;45.49;96980.25;6226686;28;20239;-55
2023/07/24 10:01:47;;;;;;;9.02;6.97;;;;;;;28.60;44.88;96975.78;6229758;28;20231;-55
2023/07/24 10:04:50;;;;;;;7.90;6.28;;;;;;;28.94;43.97;96967.47;6229924;28;20717;-55
2023/07/24 10:07:52;;;;;;;7.55;6.15;;;;;;;29.03;44.05;96960.50;6229059;28;20247;-55
2023/07/24 10:10:55;;;;;;;8.88;6.22;;;;;;;29.14;42.66;96946.88;6229735;28;20230;-55
2023/07/24 10:13:58;;;;;;;7.28;6.35;;;;;;;29.39;40.28;96941.53;6230311;28;20318;-55
2023/07/24 10:17:00;;;;;;;7.18;6.03;;;;;;;29.50;40.75;96933.34;6209946;28;20313;-55
2023/07/24 10:20:05;;;;;;;7.45;6.43;;;;;;;29.56;41.42;96931.88;6229976;28;20224;-55
2023/07/24 10:23:09;;;;;;;6.53;5.90;;;;;;;29.51;43.77;96923.97;6221964;28;20235;-56
2023/07/24 10:26:12;;;;;;;8.57;6.30;;;;;;;29.64;40.62;96921.69;6229247;28;20559;-56
2023/07/24 10:29:15;;;;;;;8.20;6.45;;;;;;;29.74;42.75;96916.25;6224180;28;20231;-56
2023/07/24 10:32:18;;;;;;;7.22;5.78;;;;;;;29.77;40.20;96903.72;6220097;28;20228;-57
2023/07/24 10:35:22;;;;;;;8.60;6.00;;;;;;;29.96;41.92;96905.34;6228623;28;20251;-57
2023/07/24 10:38:35;;;;;;;8.68;6.20;;;;;;;30.16;37.66;96881.88;6229897;28;20227;-55
2023/07/24 10:41:41;;;;;;;7.00;6.30;;;;;;;30.38;36.94;96879.94;6228380;28;20343;-55
2023/07/24 10:44:43;;;;;;;7.22;6.22;;;;;;;30.55;38.39;96876.41;6225310;28;20682;-56
2023/07/24 10:47:45;;;;;;;10.18;6.47;;;;;;;30.74;36.79;96869.78;6228029;28;20238;-56
2023/07/24 10:50:50;;;;;;;10.38;7.30;;;;;;;30.76;38.88;96863.88;6194015;28;20238;-56
2023/07/24 10:53:55;;;;;;;9.60;6.70;;;;;;;30.75;37.76;96848.56;6204001;28;20298;-56
2023/07/24 10:57:02;;;;;;;8.00;6.85;;;;;;;31.09;35.15;96851.63;6228351;28;20238;-56
2023/07/24 11:00:05;;;;;;;7.53;6.60;;;;;;;31.08;34.66;96841.78;6210574;28;20228;-56
2023/07/24 11:03:13;;;;;;;7.45;6.15;;;;;;;31.23;34.16;96824.09;6200956;28;20630;-56
2023/07/24 11:06:17;;;;;;;8.45;6.65;;;;;;;31.37;34.36;96820.50;6227396;28;20536;-56
2023/07/24 11:09:19;;;;;;;8.07;7.28;;;;;;;31.36;36.28;96818.16;6225068;28;20220;-56
2023/07/24 11:12:26;;;;;;;10.02;7.35;;;;;;;31.42;34.65;96800.81;6227834;28;20234;-55
2023/07/24 11:15:28;;;;;;;9.30;7.55;;;;;;;31.58;33.71;96800.38;6226870;28;20227;-57
2023/07/24 11:18:31;;;;;;;9.40;7.18;;;;;;;31.71;33.17;96798.69;6227241;28;20223;-57
2023/07/24 11:21:49;;;;;;;8.45;6.63;;;;;;;31.80;33.78;96792.75;6223191;28;20618;-55
2023/07/24 11:24:51;;;;;;;9.90;7.15;;;;;;;31.89;32.78;96776.59;6209105;28;20700;-56
2023/07/24 11:27:54;;;;;;;8.50;7.50;;;;;;;31.84;33.11;96763.25;6228118;28;20330;-55
2023/07/24 11:31:02;;;;;;;9.55;6.70;;;;;;;32.01;34.32;96750.53;6227342;28;20227;-56
2023/07/24 11:34:06;;;;;;;9.57;6.45;;;;;;;32.05;35.96;96760.31;6203252;28;20227;-57
2023/07/24 11:37:09;;;;;;;9.07;7.00;;;;;;;32.07;33.34;96757.97;6226463;28;20592;-57
2023/07/24 11:40:14;;;;;;;9.40;7.40;;;;;;;32.15;32.58;96738.59;6225940;28;20547;-55
2023/07/24 11:43:18;;;;;;;11.13;6.75;;;;;;;32.15;33.76;96736.63;6227396;28;20823;-55
2023/07/24 11:46:28;;;;;;;8.75;7.13;;;;;;;32.17;30.56;96722.44;6224850;28;20806;-57
2023/07/24 11:49:31;;;;;;;8.18;7.05;;;;;;;32.16;34.16;96720.88;6227498;28;20248;-56
2023/07/24 11:52:43;;;;;;;9.23;7.63;;;;;;;32.09;33.20;96722.50;6227003;28;20326;-57
2023/07/24 11:55:45;;;;;;;9.02;7.40;;;;;;;32.01;33.14;96721.00;6226775;28;20232;-57
2023/07/24 11:58:47;;;;;;;7.63;6.93;;;;;;;31.82;34.18;96694.81;6226833;28;20216;-55
2023/07/24 12:01:50;;;;;;;11.15;7.75;;;;;;;31.81;35.48;96715.25;6223084;28;20227;-56
2023/07/24 12:04:59;;;;;;;11.05;8.27;;;;;;;31.81;36.06;96714.44;6225772;28;20216;-57
2023/07/24 12:08:01;;;;;;;8.77;7.05;;;;;;;31.67;37.78;96706.28;6223373;28;20219;-57
2023/07/24 12:11:17;;;;;;;8.40;6.90;;;;;;;31.60;40.02;96702.38;6217388;28;20247;-56
2023/07/24 12:14:19;;;;;;;8.77;7.15;;;;;;;31.49;39.87;96690.69;6209358;28;20244;-56
2023/07/24 12:17:21;;;;;;;11.32;7.80;;;;;;;31.56;40.13;96700.84;6226719;28;20239;-55
2023/07/24 12:20:24;;;;;;;8.82;7.72;;;;;;;31.58;35.66;96687.47;6220414;28;20276;-57
2023/07/24 12:23:26;;;;;;;11.30;8.73;;;;;;;31.61;35.28;96675.63;6208548;28;20231;-56
2023/07/24 12:26:28;;;;;;;10.32;7.57;;;;;;;31.74;37.80;96665.72;6226119;28;20244;-55
2023/07/24 12:29:31;;;;;;;10.45;8.50;;;;;;;31.85;34.58;96655.41;6225990;28;20238;-55
2023/07/24 12:32:33;;;;;;;12.00;9.30;;;;;;;32.02;35.96;96659.22;6225969;28;20220;-55
2023/07/24 12:35:36;;;;;;;10.70;8.77;;;;;;;32.09;33.17;96645.34;6226502;28;20310;-55
2023/07/24 12:38:38;;;;;;;9.85;8.85;;;;;;;32.24;33.13;96637.72;6224572;28;20243;-55
2023/07/24 12:41:40;;;;;;;9.98;8.93;;;;;;;32.25;34.06;96627.47;6202847;28;20228;-55
2023/07/24 12:44:43;;;;;;;10.95;8.88;;;;;;;32.21;36.78;96619.22;6201964;28;20231;-56
2023/07/24 12:47:45;;;;;;;9.57;8.05;;;;;;;32.01;36.19;96624.56;6202328;28;20321;-56
2023/07/24 12:50:48;;;;;;;10.52;8.52;;;;;;;31.83;35.84;96610.97;6201824;28;20266;-57
2023/07/24 12:53:50;;;;;;;10.65;8.05;;;;;;;31.81;36.47;96623.53;6201809;28;20748;-56
2023/07/24 12:57:12;;;;;;;10.52;8.80;;;;;;;31.64;38.02;96614.25;6202031;28;20240;-56
2023/07/24 13:00:15;;;;;;;10.93;8.48;;;;;;;31.44;37.16;96618.75;6201962;28;20227;-56
2023/07/24 13:03:17;;;;;;;13.98;8.48;;;;;;;31.32;37.25;96614.50;6195801;28;20220;-57
2023/07/24 13:06:20;;;;;;;11.32;8.60;;;;;;;31.26;38.64;96599.56;6190335;28;20311;-57
2023/07/24 13:09:23;;;;;;;11.57;8.57;;;;;;;31.19;37.82;96594.91;6193339;28;20232;-57
2023/07/24 13:12:25;;;;;;;10.18;9.15;;;;;;;31.24;38.55;96593.69;6204858;28;20717;-56
2023/07/24 13:15:29;;;;;;;12.00;9.85;;;;;;;31.46;38.26;96597.88;6203852;28;20355;-57
2023/07/24 13:18:31;;;;;;;12.65;8.38;;;;;;;31.50;38.59;96601.38;6198516;28;20701;-56
2023/07/24 13:21:34;;;;;;;8.90;8.00;;;;;;;31.55;36.08;96580.91;6192643;28;20773;-56
2023/07/24 13:24:36;;;;;;;10.23;8.77;;;;;;;31.60;36.11;96583.22;6201657;28;20219;-57
2023/07/24 13:27:38;;;;;;;10.80;8.50;;;;;;;31.40;37.11;96560.97;6181190;28;20233;-57
2023/07/24 13:30:41;;;;;;;12.68;8.35;;;;;;;31.52;38.45;96574.22;6195782;28;20236;-56
2023/07/24 13:33:43;;;;;;;9.02;8.07;;;;;;;31.51;38.24;96572.66;6205415;28;20260;-56
2023/07/24 13:36:47;;;;;;;10.25;8.82;;;;;;;31.40;37.95;96555.47;6197171;28;20311;-56
2023/07/24 13:39:50;;;;;;;11.15;8.35;;;;;;;31.54;36.47;96573.84;6210487;28;20236;-57
2023/07/24 13:42:52;;;;;;;8.73;7.63;;;;;;;31.61;36.77;96557.22;6228210;28;20303;-56
2023/07/24 13:45:55;;;;;;;10.10;8.95;;;;;;;31.58;37.36;96561.59;6223590;28;20228;-57
2023/07/24 13:48:58;;;;;;;12.63;7.82;;;;;;;31.42;37.82;96557.81;6226021;28;20340;-56
2023/07/24 13:52:00;;;;;;;7.85;7.07;;;;;;;31.26;37.92;96541.78;6228833;28;20243;-57
2023/07/24 13:55:03;;;;;;;9.45;7.45;;;;;;;31.04;39.11;96543.94;6219360;28;20236;-55
2023/07/24 13:58:06;;;;;;;9.57;8.57;;;;;;;30.96;39.02;96526.69;6227710;28;20223;-56
2023/07/24 14:01:10;;;;;;;9.98;8.00;;;;;;;30.80;39.79;96520.91;6223801;28;20597;-57
2023/07/24 14:04:14;;;;;;;9.05;7.68;;;;;;;30.65;40.16;96506.44;6214123;28;20257;-55
2023/07/24 14:07:16;;;;;;;9.35;7.85;;;;;;;30.67;40.29;96519.78;6218876;28;20630;-56
2023/07/24 14:10:19;;;;;;;9.93;8.20;;;;;;;30.64;40.48;96498.56;6225890;28;20605;-55
2023/07/24 14:13:21;;;;;;;10.27;8.68;;;;;;;30.61;39.52;96499.41;6224879;28;20224;-55
2023/07/24 14:16:24;;;;;;;11.65;9.40;;;;;;;30.62;40.04;96498.97;6224067;28;20239;-56
2023/07/24 14:19:26;;;;;;;8.23;7.43;;;;;;;30.64;40.75;96491.13;6221057;28;20223;-56
2023/07/24 14:22:29;;;;;;;10.55;8.48;;;;;;;30.74;40.07;96478.50;6208811;28;20227;-55